createdAt,value
2022-09-04T00:02:16.276Z,60.0
2022-09-04T00:07:16.314Z,61.4
2022-09-04T00:12:16.289Z,61.4
2022-09-04T00:17:16.301Z,61.6
2022-09-04T00:22:16.285Z,61.2
2022-09-04T00:27:17.079Z,63.4
2022-09-04T00:32:16.292Z,63.4
2022-09-04T00:37:16.289Z,63.9
2022-09-04T00:42:16.297Z,63.9
2022-09-04T00:47:16.316Z,60.0
2022-09-04T00:52:16.321Z,59.1
2022-09-04T01:07:16.314Z,63.2
2022-09-04T01:12:16.321Z,61.1
2022-09-04T01:17:16.316Z,61.7
2022-09-04T01:27:16.306Z,63.2
2022-09-04T01:32:16.323Z,60.1
2022-09-04T01:37:16.309Z,60.6
2022-09-04T01:42:16.312Z,64.2
2022-09-04T01:47:16.324Z,61.7
2022-09-04T01:52:16.328Z,65.2
2022-09-04T02:02:16.379Z,66.8
2022-09-04T02:07:16.320Z,69.4
2022-09-04T02:17:16.326Z,69.1
2022-09-04T02:22:16.368Z,72.1
2022-09-04T02:27:16.345Z,72.1
2022-09-04T02:32:16.349Z,71.0
2022-09-04T02:37:16.339Z,72.6
2022-09-04T02:42:16.363Z,69.2
2022-09-04T02:52:16.345Z,69.7
2022-09-04T02:57:16.350Z,72.1
2022-09-04T03:02:16.412Z,72.9
2022-09-04T03:07:16.574Z,74.2
2022-09-04T03:12:17.464Z,70.4
2022-09-04T03:17:16.362Z,73.5
2022-09-04T03:22:16.370Z,70.8
2022-09-04T03:27:16.361Z,72.1
2022-09-04T03:32:17.212Z,73.1
2022-09-04T03:37:16.378Z,71.5
2022-09-04T03:42:16.377Z,74.1
2022-09-04T03:52:16.389Z,72.0
2022-09-04T03:57:16.381Z,73.3
2022-09-04T04:02:16.374Z,74.3
2022-09-04T04:12:16.408Z,73.6
2022-09-04T04:17:20.312Z,71.2
2022-09-04T04:22:16.377Z,73.3
2022-09-04T04:27:16.394Z,75.1
2022-09-04T04:32:16.398Z,75.7
2022-09-04T04:37:16.388Z,73.9
2022-09-04T04:42:16.409Z,73.8
2022-09-04T04:47:16.385Z,68.7
2022-09-04T04:52:16.411Z,69.7
2022-09-04T04:57:16.411Z,73.8
2022-09-04T05:02:16.536Z,73.3
2022-09-04T05:07:16.395Z,75.0
2022-09-04T05:12:16.408Z,76.7
2022-09-04T05:17:16.450Z,77.7
2022-09-04T05:22:16.421Z,76.0
2022-09-04T05:37:16.414Z,73.1
2022-09-04T05:42:16.418Z,73.7
2022-09-04T05:47:16.428Z,75.6
2022-09-04T05:52:16.412Z,73.3
2022-09-04T05:57:16.414Z,73.5
2022-09-04T06:02:16.538Z,70.7
2022-09-04T06:07:16.431Z,74.4
2022-09-04T06:12:19.449Z,69.0
2022-09-04T06:17:16.424Z,71.3
2022-09-04T06:22:16.444Z,65.4
2022-09-04T06:32:16.442Z,65.2
2022-09-04T06:37:16.428Z,66.8
2022-09-04T06:42:16.440Z,66.4
2022-09-04T06:52:16.442Z,67.8
2022-09-04T06:57:16.453Z,66.0
2022-09-04T07:02:16.622Z,66.3
2022-09-04T07:07:16.455Z,72.8
2022-09-04T07:12:16.450Z,64.8
2022-09-04T07:17:17.879Z,65.1
2022-09-04T07:22:16.461Z,65.1
2022-09-04T07:27:16.460Z,67.6
2022-09-04T07:32:16.468Z,61.5
2022-09-04T07:37:16.469Z,68.2
2022-09-04T07:42:16.507Z,62.7
2022-09-04T07:47:16.475Z,62.7
2022-09-04T07:52:16.470Z,70.4
2022-09-04T07:57:16.466Z,66.1
2022-09-04T08:02:16.481Z,67.1
2022-09-04T08:07:16.478Z,63.6
2022-09-04T08:12:16.479Z,63.4
2022-09-04T08:17:16.481Z,61.7
2022-09-04T08:22:16.497Z,63.7
2022-09-04T08:27:16.484Z,63.8
2022-09-04T08:32:16.474Z,60.3
2022-09-04T08:37:17.425Z,61.6
2022-09-04T08:42:16.491Z,58.1
2022-09-04T08:47:16.498Z,60.5
2022-09-04T08:52:16.503Z,61.7
2022-09-04T09:02:16.539Z,57.5
2022-09-04T09:07:16.509Z,58.6
2022-09-04T09:12:16.518Z,58.1
2022-09-04T09:17:16.522Z,58.2
2022-09-04T09:22:16.505Z,54.4
2022-09-04T09:27:16.509Z,54.0
2022-09-04T09:32:16.513Z,54.4
2022-09-04T09:37:16.518Z,53.4
2022-09-04T09:42:16.512Z,50.7
2022-09-04T09:52:16.538Z,50.9
2022-09-04T09:57:16.511Z,50.7
2022-09-04T10:02:16.631Z,50.1
2022-09-04T10:07:16.542Z,44.1
2022-09-04T10:12:16.529Z,41.7
2022-09-04T10:17:16.533Z,37.9
2022-09-04T10:22:16.538Z,36.1
2022-09-04T10:27:16.554Z,36.8
2022-09-04T10:32:17.836Z,37.9
2022-09-04T10:37:16.543Z,37.9
2022-09-04T10:42:16.536Z,37.1
2022-09-04T10:47:16.559Z,37.7
2022-09-04T10:52:16.567Z,35.0
2022-09-04T10:57:16.563Z,36.1
2022-09-04T11:02:16.644Z,36.1
2022-09-04T11:07:16.554Z,35.0
2022-09-04T11:12:16.555Z,34.8
2022-09-04T11:17:16.562Z,34.8
2022-09-04T11:22:18.041Z,37.1
2022-09-04T11:27:16.567Z,37.1
2022-09-04T11:32:16.562Z,39.5
2022-09-04T11:37:16.575Z,37.8
2022-09-04T11:42:16.571Z,38.5
2022-09-04T11:47:16.568Z,37.9
2022-09-04T11:52:16.581Z,40.6
2022-09-04T11:57:16.575Z,42.4
2022-09-04T12:02:16.630Z,41.0
2022-09-04T12:07:16.574Z,38.1
2022-09-04T12:12:16.576Z,40.1
2022-09-04T12:17:16.580Z,42.6
2022-09-04T12:22:16.592Z,44.2
2022-09-04T12:27:16.606Z,43.7
2022-09-04T12:32:16.590Z,41.5
2022-09-04T12:37:16.625Z,37.5
2022-09-04T12:42:16.600Z,36.1
2022-09-04T12:47:16.586Z,36.8
2022-09-04T12:52:16.601Z,40.1
2022-09-04T12:57:16.600Z,40.9
2022-09-04T13:02:16.832Z,41.7
2022-09-04T13:07:16.615Z,39.9
2022-09-04T13:12:16.622Z,39.7
2022-09-04T13:17:16.659Z,38.4
2022-09-04T13:22:16.616Z,37.5
2022-09-04T13:27:16.604Z,37.6
2022-09-04T13:32:16.617Z,38.1
2022-09-04T13:37:16.684Z,40.2
2022-09-04T13:42:16.615Z,40.2
2022-09-04T13:47:16.918Z,38.2
2022-09-04T13:52:16.617Z,37.3
2022-09-04T13:57:16.628Z,36.9
2022-09-04T14:02:16.634Z,36.6
2022-09-04T14:07:16.638Z,36.2
2022-09-04T14:12:16.639Z,34.1
2022-09-04T14:17:16.634Z,35.3
2022-09-04T14:27:16.635Z,33.6
2022-09-04T14:32:16.642Z,34.5
2022-09-04T14:37:16.638Z,34.0
2022-09-04T14:42:16.645Z,35.2
2022-09-04T14:47:16.653Z,34.8
2022-09-04T14:52:16.662Z,34.7
2022-09-04T15:02:16.670Z,36.1
2022-09-04T15:07:16.711Z,34.8
2022-09-04T15:12:24.159Z,33.3
2022-09-04T15:17:16.672Z,33.8
2022-09-04T15:22:16.659Z,32.5
2022-09-04T15:27:26.815Z,32.8
2022-09-04T15:32:16.679Z,32.8
2022-09-04T15:37:17.448Z,32.8
2022-09-04T15:42:16.673Z,32.8
2022-09-04T15:47:16.667Z,33.2
2022-09-04T15:52:16.693Z,32.8
2022-09-04T15:57:16.668Z,33.7
2022-09-04T16:02:16.692Z,33.9
2022-09-04T16:07:16.686Z,33.9
2022-09-04T16:17:16.696Z,33.4
2022-09-04T16:22:16.690Z,33.2
2022-09-04T16:27:16.705Z,34.6
2022-09-04T16:32:16.706Z,34.3
2022-09-04T16:37:16.700Z,35.2
2022-09-04T16:42:16.710Z,35.5
2022-09-04T16:47:16.710Z,35.7
2022-09-04T16:52:16.709Z,35.0
2022-09-04T16:57:16.717Z,35.3
2022-09-04T17:02:16.827Z,35.7
2022-09-04T17:07:16.705Z,35.3
2022-09-04T17:12:18.189Z,35.8
2022-09-04T17:17:30.221Z,36.8
2022-09-04T17:26:16.769Z,36.5
2022-09-04T17:29:13.157Z,38.4
2022-09-04T17:40:56.293Z,38.3
2022-09-04T17:42:17.149Z,40.2
2022-09-04T17:47:16.733Z,41.7
2022-09-04T17:52:16.720Z,40.9
2022-09-04T17:57:17.697Z,46.3
2022-09-04T18:02:16.748Z,43.5
2022-09-04T18:07:53.156Z,45.8
2022-09-04T18:12:16.757Z,46.9
2022-09-04T18:17:16.859Z,45.4
2022-09-04T18:22:25.699Z,46.3
2022-09-04T18:27:16.760Z,46.6
2022-09-04T18:37:16.263Z,47.4
2022-09-04T18:50:40.541Z,46.7
2022-09-04T18:50:49.243Z,46.9
2022-09-04T18:52:16.855Z,47.6
2022-09-04T18:57:16.762Z,51.0
2022-09-04T19:12:16.771Z,50.3
2022-09-04T19:17:16.773Z,51.4
2022-09-04T19:22:16.801Z,52.0
2022-09-04T19:27:26.583Z,50.1
2022-09-04T19:38:55.840Z,52.3
2022-09-04T19:46:06.658Z,52.4
2022-09-04T19:47:28.442Z,52.4
2022-09-04T19:53:33.686Z,53.2
2022-09-04T19:57:33.377Z,53.6
2022-09-04T20:02:16.786Z,53.9
2022-09-04T20:12:16.800Z,54.4
2022-09-04T20:27:16.819Z,55.4
2022-09-04T20:32:16.849Z,54.8
2022-09-04T20:37:16.808Z,55.1
2022-09-04T20:42:16.802Z,55.7
2022-09-04T20:59:29.501Z,57.3
2022-09-04T21:03:20.863Z,58.0
2022-09-04T21:07:16.820Z,57.3
2022-09-04T21:12:16.844Z,56.7
2022-09-04T21:17:33.936Z,57.2
2022-09-04T21:22:32.560Z,57.4
2022-09-04T21:27:16.829Z,57.5
2022-09-04T21:37:16.821Z,61.1
2022-09-04T21:42:17.616Z,59.4
2022-09-04T21:52:16.834Z,60.4
2022-09-04T22:02:30.710Z,61.6
2022-09-04T22:13:46.008Z,61.2
2022-09-04T22:17:16.855Z,62.0
2022-09-04T22:22:16.847Z,62.5
2022-09-04T22:32:20.266Z,61.4
2022-09-04T22:37:16.861Z,61.0
2022-09-04T22:42:20.413Z,61.8
2022-09-04T22:47:16.859Z,63.0
2022-09-04T23:12:16.880Z,63.6
2022-09-04T23:17:16.876Z,64.2
2022-09-04T23:26:38.559Z,63.7
2022-09-04T23:32:16.946Z,64.7
2022-09-04T23:42:16.889Z,64.6
2022-09-04T23:47:46.637Z,64.8
2022-09-04T23:52:16.902Z,64.9
